createdAt,value
2023-06-18T00:01:25.321Z,8.73
2023-06-18T00:03:51.724Z,9.57
2023-06-18T00:06:18.220Z,9.82
2023-06-18T00:08:45.476Z,10.43
2023-06-18T00:11:14.918Z,10.68
2023-06-18T00:13:41.340Z,10.07
2023-06-18T00:16:07.822Z,10.75
2023-06-18T00:18:37.371Z,11.05
2023-06-18T00:21:08.498Z,9.82
2023-06-18T00:23:36.099Z,10.80
2023-06-18T00:26:02.569Z,10.32
2023-06-18T00:28:30.054Z,10.45
2023-06-18T00:30:56.722Z,11.45
2023-06-18T00:33:25.256Z,13.63
2023-06-18T00:35:57.989Z,11.90
2023-06-18T00:38:25.696Z,11.48
2023-06-18T00:40:52.296Z,11.00
2023-06-18T00:43:19.311Z,10.80
2023-06-18T00:45:46.326Z,10.07
2023-06-18T00:48:14.990Z,10.38
2023-06-18T00:50:42.156Z,10.77
2023-06-18T00:53:09.775Z,11.18
2023-06-18T00:55:39.729Z,11.43
2023-06-18T00:58:09.452Z,10.50
2023-06-18T01:00:35.996Z,10.55
2023-06-18T01:03:06.483Z,11.55
2023-06-18T01:05:34.628Z,11.10
2023-06-18T01:08:07.522Z,10.63
2023-06-18T01:10:40.085Z,12.02
2023-06-18T01:13:08.819Z,11.60
2023-06-18T01:15:43.976Z,12.27
2023-06-18T01:18:10.554Z,11.85
2023-06-18T01:20:50.678Z,12.20
2023-06-18T01:23:28.280Z,11.82
2023-06-18T01:25:58.418Z,13.02
2023-06-18T01:28:31.849Z,12.63
2023-06-18T01:30:59.479Z,11.68
2023-06-18T01:33:26.519Z,12.30
2023-06-18T01:35:53.582Z,11.48
2023-06-18T01:38:33.632Z,11.48
2023-06-18T01:41:10.039Z,11.45
2023-06-18T01:43:49.775Z,12.23
2023-06-18T01:46:22.690Z,12.07
2023-06-18T01:48:57.129Z,12.32
2023-06-18T01:51:25.392Z,11.80
2023-06-18T01:53:53.859Z,11.55
2023-06-18T01:56:21.627Z,12.45
2023-06-18T01:58:52.181Z,11.75
2023-06-18T02:01:21.574Z,12.00
2023-06-18T02:03:48.560Z,11.70
2023-06-18T02:06:15.313Z,12.57
2023-06-18T02:08:42.146Z,12.00
2023-06-18T02:11:09.311Z,12.45
2023-06-18T02:13:35.818Z,12.32
2023-06-18T02:16:02.307Z,12.15
2023-06-18T02:18:28.832Z,12.30
2023-06-18T02:20:55.319Z,12.63
2023-06-18T02:23:21.726Z,12.02
2023-06-18T02:25:49.068Z,11.63
2023-06-18T02:28:15.474Z,12.50
2023-06-18T02:30:41.951Z,12.88
2023-06-18T02:33:08.665Z,12.35
2023-06-18T02:35:35.766Z,13.00
2023-06-18T02:38:02.224Z,11.75
2023-06-18T02:40:28.626Z,12.77
2023-06-18T02:43:00.028Z,11.30
2023-06-18T02:45:29.786Z,12.80
2023-06-18T02:47:56.284Z,13.15
2023-06-18T02:50:22.954Z,13.02
2023-06-18T02:52:49.567Z,12.45
2023-06-18T02:55:16.602Z,12.68
2023-06-18T02:57:43.662Z,11.90
2023-06-18T03:00:12.898Z,12.68
2023-06-18T03:02:42.199Z,11.50
2023-06-18T03:05:09.995Z,13.85
2023-06-18T03:07:36.688Z,12.25
2023-06-18T03:10:04.098Z,12.35
2023-06-18T03:12:30.562Z,12.63
2023-06-18T03:14:57.054Z,12.75
2023-06-18T03:17:23.695Z,14.93
2023-06-18T03:19:50.287Z,12.02
2023-06-18T03:22:17.544Z,12.80
2023-06-18T03:24:44.062Z,11.93
2023-06-18T03:27:10.553Z,12.25
2023-06-18T03:29:37.109Z,12.23
2023-06-18T03:32:03.916Z,12.32
2023-06-18T03:34:32.559Z,11.40
2023-06-18T03:37:01.729Z,12.57
2023-06-18T03:39:28.994Z,13.18
2023-06-18T03:41:55.519Z,12.00
2023-06-18T03:44:22.981Z,12.27
2023-06-18T03:46:49.722Z,12.82
2023-06-18T03:49:17.503Z,11.43
2023-06-18T03:51:43.987Z,11.73
2023-06-18T03:54:10.512Z,11.48
2023-06-18T03:56:37.007Z,11.43
2023-06-18T03:59:03.635Z,10.43
2023-06-18T04:01:30.125Z,11.10
2023-06-18T04:03:57.217Z,12.07
2023-06-18T04:06:24.045Z,12.10
2023-06-18T04:08:50.495Z,12.05
2023-06-18T04:11:17.111Z,12.07
2023-06-18T04:13:43.703Z,12.48
2023-06-18T04:16:10.886Z,11.65
2023-06-18T04:18:37.465Z,12.10
2023-06-18T04:21:04.098Z,11.52
2023-06-18T04:23:30.664Z,11.45
2023-06-18T04:25:57.253Z,12.70
2023-06-18T04:28:24.004Z,12.25
2023-06-18T04:30:50.925Z,12.10
2023-06-18T04:33:19.703Z,12.18
2023-06-18T04:35:46.447Z,12.38
2023-06-18T04:38:13.506Z,12.88
2023-06-18T04:40:39.961Z,11.60
2023-06-18T04:43:06.906Z,11.15
2023-06-18T04:45:33.590Z,11.20
2023-06-18T04:48:05.210Z,12.13
2023-06-18T04:50:32.053Z,12.20
2023-06-18T04:52:58.744Z,11.23
2023-06-18T04:55:28.826Z,11.38
2023-06-18T04:57:55.335Z,11.27
2023-06-18T05:00:22.354Z,11.63
2023-06-18T05:02:49.442Z,11.27
2023-06-18T05:05:18.922Z,10.23
2023-06-18T05:07:45.622Z,11.82
2023-06-18T05:10:14.454Z,11.23
2023-06-18T05:12:51.006Z,12.00
2023-06-18T05:15:17.785Z,11.57
2023-06-18T05:17:44.340Z,12.52
2023-06-18T05:20:11.291Z,11.52
2023-06-18T05:22:38.135Z,11.18
2023-06-18T05:25:05.990Z,11.32
2023-06-18T05:27:32.653Z,9.98
2023-06-18T05:30:00.713Z,10.68
2023-06-18T05:32:27.305Z,10.20
2023-06-18T05:34:56.859Z,10.85
2023-06-18T05:37:24.990Z,10.75
2023-06-18T05:42:44.972Z,10.30
2023-06-18T05:45:11.874Z,10.45
2023-06-18T05:47:38.528Z,10.38
2023-06-18T05:50:08.228Z,10.30
2023-06-18T05:52:34.893Z,9.73
2023-06-18T05:55:01.309Z,10.63
2023-06-18T05:57:28.706Z,10.98
2023-06-18T05:59:55.262Z,10.30
2023-06-18T06:02:21.691Z,10.30
2023-06-18T06:04:48.173Z,11.15
2023-06-18T06:07:14.674Z,10.25
2023-06-18T06:09:41.372Z,10.98
2023-06-18T06:12:11.969Z,9.82
2023-06-18T06:14:38.918Z,11.60
2023-06-18T06:17:05.539Z,11.27
2023-06-18T06:19:31.977Z,10.70
2023-06-18T06:21:58.409Z,9.85
2023-06-18T06:24:25.219Z,10.50
2023-06-18T06:27:00.811Z,9.63
2023-06-18T06:29:27.507Z,11.18
2023-06-18T06:31:53.854Z,9.07
2023-06-18T06:34:21.454Z,10.38
2023-06-18T06:36:48.008Z,10.00
2023-06-18T06:39:14.633Z,9.20
2023-06-18T06:41:41.285Z,9.10
2023-06-18T06:44:07.871Z,8.35
2023-06-18T06:46:36.995Z,8.65
2023-06-18T06:49:08.100Z,9.07
2023-06-18T06:51:36.468Z,10.10
2023-06-18T06:54:04.097Z,10.57
2023-06-18T06:56:31.794Z,9.90
2023-06-18T06:58:58.457Z,13.48
2023-06-18T07:01:25.947Z,11.60
2023-06-18T07:03:54.568Z,9.68
2023-06-18T07:06:21.391Z,10.55
2023-06-18T07:08:47.988Z,10.52
2023-06-18T07:11:14.582Z,10.88
2023-06-18T07:13:42.403Z,11.35
2023-06-18T07:16:09.315Z,11.30
2023-06-18T07:18:35.725Z,12.48
2023-06-18T07:21:02.373Z,12.57
2023-06-18T07:23:28.852Z,14.82
2023-06-18T07:25:55.573Z,13.93
2023-06-18T07:28:22.092Z,13.77
2023-06-18T07:30:48.936Z,12.45
2023-06-18T07:33:15.766Z,10.10
2023-06-18T07:35:42.480Z,11.10
2023-06-18T07:38:09.100Z,12.23
2023-06-18T07:40:38.165Z,10.32
2023-06-18T07:43:04.841Z,10.50
2023-06-18T07:45:35.875Z,9.82
2023-06-18T07:48:02.659Z,9.85
2023-06-18T07:50:29.241Z,9.30
2023-06-18T07:52:55.991Z,9.15
2023-06-18T07:55:23.902Z,9.63
2023-06-18T07:57:50.612Z,9.60
2023-06-18T08:00:17.234Z,8.65
2023-06-18T08:02:44.585Z,8.63
2023-06-18T08:05:14.282Z,9.10
2023-06-18T08:07:40.967Z,11.68
2023-06-18T08:10:08.540Z,15.35
2023-06-18T08:12:35.057Z,8.68
2023-06-18T08:15:01.748Z,10.43
2023-06-18T08:17:28.203Z,9.32
2023-06-18T08:19:54.926Z,8.05
2023-06-18T08:22:21.265Z,8.95
2023-06-18T08:24:47.874Z,8.70
2023-06-18T08:27:14.375Z,9.07
2023-06-18T08:29:40.864Z,8.20
2023-06-18T08:32:07.614Z,8.48
2023-06-18T08:34:46.129Z,10.20
2023-06-18T08:37:13.216Z,8.30
2023-06-18T08:39:40.286Z,8.57
2023-06-18T08:42:09.970Z,8.63
2023-06-18T08:44:36.662Z,8.43
2023-06-18T08:47:07.471Z,8.43
2023-06-18T08:49:34.676Z,7.93
2023-06-18T08:52:06.315Z,7.57
2023-06-18T08:54:34.219Z,8.43
2023-06-18T08:57:12.870Z,8.40
2023-06-18T08:59:44.321Z,9.57
2023-06-18T09:02:16.694Z,8.52
2023-06-18T09:04:43.702Z,8.60
2023-06-18T09:07:10.357Z,9.52
2023-06-18T09:09:40.399Z,9.10
2023-06-18T09:12:07.352Z,9.02
2023-06-18T09:14:36.605Z,9.30
2023-06-18T09:17:03.228Z,8.05
2023-06-18T09:19:30.455Z,8.60
2023-06-18T09:21:59.123Z,7.93
2023-06-18T09:24:25.800Z,8.60
2023-06-18T09:27:01.579Z,8.50
2023-06-18T09:29:33.898Z,13.23
2023-06-18T09:32:15.554Z,8.13
2023-06-18T09:34:43.335Z,8.75
2023-06-18T09:37:13.888Z,8.35
2023-06-18T09:39:41.493Z,8.25
2023-06-18T09:42:10.360Z,8.82
2023-06-18T09:44:37.841Z,9.15
2023-06-18T09:47:12.730Z,8.18
2023-06-18T09:49:41.070Z,8.48
2023-06-18T09:52:09.047Z,8.85
2023-06-18T09:54:40.120Z,10.15
2023-06-18T09:57:07.581Z,9.00
2023-06-18T09:59:34.127Z,8.43
2023-06-18T10:02:00.636Z,8.63
2023-06-18T10:04:27.419Z,9.13
2023-06-18T10:07:02.824Z,9.10
2023-06-18T10:09:41.447Z,7.95
2023-06-18T10:12:08.526Z,7.03
2023-06-18T10:14:35.813Z,6.63
2023-06-18T10:17:12.997Z,6.65
2023-06-18T10:20:11.745Z,7.13
2023-06-18T10:22:49.604Z,6.60
2023-06-18T10:25:16.880Z,7.88
2023-06-18T10:27:44.627Z,7.13
2023-06-18T10:30:12.177Z,6.68
2023-06-18T10:32:43.912Z,6.97
2023-06-18T10:35:13.733Z,6.75
2023-06-18T10:37:43.162Z,5.57
2023-06-18T10:40:11.360Z,6.28
2023-06-18T10:45:13.330Z,7.22
2023-06-18T10:47:40.865Z,6.32
2023-06-18T10:50:07.405Z,5.70
2023-06-18T10:52:41.956Z,6.80
2023-06-18T10:57:46.131Z,6.53
2023-06-18T11:00:18.233Z,6.78
2023-06-18T11:02:46.323Z,6.57
2023-06-18T11:05:37.104Z,5.68
2023-06-18T11:08:06.084Z,6.93
2023-06-18T11:10:37.844Z,5.65
2023-06-18T11:13:05.710Z,5.68
2023-06-18T11:15:32.811Z,5.68
2023-06-18T11:18:02.560Z,5.43
2023-06-18T11:20:36.298Z,6.53
2023-06-18T11:23:05.515Z,5.40
2023-06-18T11:25:32.106Z,5.93
2023-06-18T11:28:04.049Z,6.28
2023-06-18T11:30:35.371Z,6.05
2023-06-18T11:33:01.997Z,5.95
2023-06-18T11:35:32.129Z,5.85
2023-06-18T11:37:58.693Z,6.43
2023-06-18T11:40:25.760Z,6.18
2023-06-18T11:42:53.662Z,5.57
2023-06-18T11:45:21.322Z,6.30
2023-06-18T11:47:50.661Z,6.32
2023-06-18T11:50:18.900Z,5.75
2023-06-18T11:52:46.101Z,5.63
2023-06-18T11:55:13.141Z,5.15
2023-06-18T11:57:40.465Z,5.32
2023-06-18T12:00:11.323Z,5.90
2023-06-18T12:02:41.925Z,5.35
2023-06-18T12:05:09.629Z,5.28
2023-06-18T12:07:40.356Z,5.50
2023-06-18T12:10:10.079Z,5.40
2023-06-18T12:12:49.781Z,5.05
2023-06-18T12:15:23.456Z,5.22
2023-06-18T12:18:05.392Z,5.38
2023-06-18T12:20:32.876Z,5.28
2023-06-18T12:23:01.333Z,5.82
2023-06-18T12:25:29.916Z,5.97
2023-06-18T12:27:57.861Z,5.15
2023-06-18T12:30:29.828Z,6.05
2023-06-18T12:33:07.674Z,5.65
2023-06-18T12:35:36.107Z,5.25
2023-06-18T12:38:04.679Z,5.68
2023-06-18T12:40:32.857Z,5.68
2023-06-18T12:43:01.440Z,6.13
2023-06-18T12:45:32.552Z,5.30
2023-06-18T12:48:09.942Z,5.93
2023-06-18T12:50:39.272Z,6.10
2023-06-18T12:53:18.458Z,6.35
2023-06-18T12:55:49.051Z,5.75
2023-06-18T12:58:18.418Z,4.93
2023-06-18T13:00:47.582Z,5.13
2023-06-18T13:03:15.670Z,5.35
2023-06-18T13:05:44.313Z,6.00
2023-06-18T13:08:19.053Z,5.10
2023-06-18T13:10:50.426Z,5.57
2023-06-18T13:13:18.247Z,5.30
2023-06-18T13:15:46.264Z,5.90
2023-06-18T13:18:13.976Z,5.00
2023-06-18T13:20:40.733Z,5.03
2023-06-18T13:23:07.718Z,5.85
2023-06-18T13:25:34.133Z,5.97
2023-06-18T13:28:02.276Z,4.85
2023-06-18T13:30:30.760Z,4.97
2023-06-18T13:32:58.387Z,5.25
2023-06-18T13:35:25.673Z,5.22
2023-06-18T13:37:55.299Z,6.55
2023-06-18T13:40:23.979Z,5.65
2023-06-18T13:42:51.288Z,5.18
2023-06-18T13:45:20.770Z,5.80
2023-06-18T13:47:48.284Z,5.40
2023-06-18T13:50:14.977Z,5.32
2023-06-18T13:52:41.375Z,5.10
2023-06-18T13:55:08.292Z,5.07
2023-06-18T13:57:34.805Z,5.43
2023-06-18T14:00:01.247Z,5.18
2023-06-18T14:02:27.943Z,5.05
2023-06-18T14:04:55.790Z,5.30
2023-06-18T14:07:22.290Z,5.57
2023-06-18T14:09:48.892Z,5.20
2023-06-18T14:12:16.417Z,4.57
2023-06-18T14:14:43.801Z,5.07
2023-06-18T14:17:12.878Z,5.50
2023-06-18T14:19:40.760Z,5.72
2023-06-18T14:22:07.744Z,5.18
2023-06-18T14:24:35.628Z,5.47
2023-06-18T14:27:03.365Z,4.90
2023-06-18T14:29:33.514Z,5.32
2023-06-18T14:32:03.503Z,5.13
2023-06-18T14:34:29.995Z,4.63
2023-06-18T14:36:56.722Z,5.10
2023-06-18T14:39:24.400Z,5.43
2023-06-18T14:41:56.265Z,4.97
2023-06-18T14:44:25.252Z,5.07
2023-06-18T14:46:51.683Z,5.32
2023-06-18T14:49:18.111Z,5.07
2023-06-18T14:51:44.480Z,4.80
2023-06-18T14:54:14.770Z,5.00
2023-06-18T14:56:47.325Z,4.93
2023-06-18T14:59:13.904Z,5.47
2023-06-18T15:01:40.546Z,4.97
2023-06-18T15:04:08.761Z,4.65
2023-06-18T15:06:35.903Z,4.63
2023-06-18T15:09:03.943Z,4.78
2023-06-18T15:11:31.103Z,4.63
2023-06-18T15:13:58.051Z,5.00
2023-06-18T15:16:24.900Z,5.20
2023-06-18T15:18:51.966Z,5.40
2023-06-18T15:21:18.923Z,5.65
2023-06-18T15:23:45.472Z,5.60
2023-06-18T15:26:14.542Z,5.72
2023-06-18T15:28:41.734Z,5.38
2023-06-18T15:31:12.484Z,5.28
2023-06-18T15:33:39.615Z,5.13
2023-06-18T15:36:10.113Z,5.13
2023-06-18T15:38:37.207Z,5.60
2023-06-18T15:41:04.872Z,4.90
2023-06-18T15:43:32.392Z,5.88
2023-06-18T15:45:59.151Z,5.13
2023-06-18T15:48:25.688Z,4.90
2023-06-18T15:50:52.299Z,5.25
2023-06-18T15:53:19.385Z,5.15
2023-06-18T15:55:48.283Z,5.47
2023-06-18T15:58:17.062Z,5.50
2023-06-18T16:00:43.631Z,5.20
2023-06-18T16:03:10.752Z,5.25
2023-06-18T16:05:40.530Z,4.88
2023-06-18T16:08:07.100Z,4.80
2023-06-18T16:10:35.658Z,5.50
2023-06-18T16:13:03.740Z,4.82
2023-06-18T16:15:30.780Z,5.68
2023-06-18T16:17:57.311Z,5.40
2023-06-18T16:20:23.788Z,5.00
2023-06-18T16:22:50.148Z,4.95
2023-06-18T16:25:16.710Z,5.50
2023-06-18T16:27:43.130Z,5.30
2023-06-18T16:30:09.830Z,4.93
2023-06-18T16:32:36.365Z,5.05
2023-06-18T16:35:02.774Z,5.38
2023-06-18T16:37:29.122Z,5.53
2023-06-18T16:39:55.952Z,5.13
2023-06-18T16:42:22.418Z,5.70
2023-06-18T16:44:48.847Z,5.55
2023-06-18T16:47:15.502Z,4.88
2023-06-18T16:49:41.973Z,5.78
2023-06-18T16:52:08.563Z,5.38
2023-06-18T16:54:34.965Z,5.13
2023-06-18T16:57:01.477Z,5.72
2023-06-18T16:59:28.804Z,5.13
2023-06-18T17:01:55.320Z,5.15
2023-06-18T17:04:22.718Z,5.57
2023-06-18T17:06:49.174Z,5.47
2023-06-18T17:09:15.823Z,5.53
2023-06-18T17:11:42.337Z,5.10
2023-06-18T17:14:08.808Z,5.53
2023-06-18T17:16:35.305Z,5.50
2023-06-18T17:19:04.827Z,5.15
2023-06-18T17:21:31.700Z,5.05
2023-06-18T17:24:01.462Z,5.25
2023-06-18T17:26:28.534Z,5.07
2023-06-18T17:28:57.344Z,5.43
2023-06-18T17:31:25.048Z,5.10
2023-06-18T17:33:51.828Z,5.32
2023-06-18T17:36:20.824Z,5.63
2023-06-18T17:38:48.640Z,6.57
2023-06-18T17:41:15.327Z,5.45
2023-06-18T17:43:41.829Z,5.55
2023-06-18T17:46:14.963Z,5.10
2023-06-18T17:48:43.666Z,6.13
2023-06-18T17:51:10.078Z,5.32
2023-06-18T17:53:36.587Z,4.97
2023-06-18T17:56:03.217Z,5.25
2023-06-18T17:58:30.026Z,5.68
2023-06-18T18:00:57.314Z,5.78
2023-06-18T18:03:23.938Z,5.25
2023-06-18T18:05:53.158Z,5.78
2023-06-18T18:08:19.628Z,5.90
2023-06-18T18:10:46.464Z,5.22
2023-06-18T18:13:15.176Z,5.70
2023-06-18T18:15:43.628Z,5.63
2023-06-18T18:18:12.476Z,6.65
2023-06-18T18:20:38.826Z,5.68
2023-06-18T18:23:05.200Z,5.10
2023-06-18T18:25:31.612Z,5.35
2023-06-18T18:27:58.248Z,5.53
2023-06-18T18:30:24.661Z,5.55
2023-06-18T18:32:51.162Z,5.55
2023-06-18T18:35:17.753Z,6.00
2023-06-18T18:37:46.049Z,5.57
2023-06-18T18:40:12.750Z,5.38
2023-06-18T18:42:41.665Z,6.43
2023-06-18T18:45:08.581Z,5.43
2023-06-18T18:47:35.211Z,5.97
2023-06-18T18:50:01.731Z,6.03
2023-06-18T18:52:28.640Z,6.55
2023-06-18T18:54:55.113Z,6.22
2023-06-18T18:57:21.585Z,6.13
2023-06-18T18:59:48.505Z,5.80
2023-06-18T19:02:16.562Z,5.75
2023-06-18T19:04:43.061Z,5.93
2023-06-18T19:07:09.553Z,6.45
2023-06-18T19:09:36.714Z,5.82
2023-06-18T19:12:03.255Z,6.78
2023-06-18T19:14:30.072Z,6.60
2023-06-18T19:16:57.426Z,6.10
2023-06-18T19:19:25.603Z,6.65
2023-06-18T19:21:52.094Z,6.40
2023-06-18T19:24:18.533Z,6.72
2023-06-18T19:26:45.081Z,6.38
2023-06-18T19:29:11.772Z,6.63
2023-06-18T19:31:38.130Z,8.02
2023-06-18T19:34:04.523Z,6.22
2023-06-18T19:36:30.881Z,6.70
2023-06-18T19:38:57.816Z,7.30
2023-06-18T19:41:24.243Z,7.57
2023-06-18T19:43:50.682Z,6.30
2023-06-18T19:46:17.059Z,6.45
2023-06-18T19:48:43.447Z,6.97
2023-06-18T19:51:09.881Z,6.75
2023-06-18T19:53:36.461Z,6.68
2023-06-18T19:56:03.464Z,6.28
2023-06-18T19:58:29.850Z,7.68
2023-06-18T20:00:56.248Z,6.70
2023-06-18T20:03:24.031Z,6.07
2023-06-18T20:05:51.007Z,7.03
2023-06-18T20:08:17.725Z,6.35
2023-06-18T20:10:44.154Z,8.13
2023-06-18T20:13:10.605Z,7.28
2023-06-18T20:15:37.648Z,6.70
2023-06-18T20:18:04.651Z,7.15
2023-06-18T20:20:31.261Z,7.80
2023-06-18T20:22:57.763Z,7.63
2023-06-18T20:25:24.164Z,7.90
2023-06-18T20:27:50.771Z,6.82
2023-06-18T20:30:17.215Z,7.43
2023-06-18T20:32:43.619Z,8.20
2023-06-18T20:35:10.000Z,7.90
2023-06-18T20:37:36.538Z,7.72
2023-06-18T20:40:03.421Z,7.63
2023-06-18T20:42:29.897Z,8.02
2023-06-18T20:44:56.327Z,9.43
2023-06-18T20:47:22.836Z,7.68
2023-06-18T20:49:49.231Z,9.75
2023-06-18T20:52:15.721Z,8.70
2023-06-18T20:54:42.953Z,8.70
2023-06-18T20:57:11.007Z,7.82
2023-06-18T20:59:37.536Z,7.72
2023-06-18T21:02:04.345Z,8.80
2023-06-18T21:04:30.758Z,8.65
2023-06-18T21:06:57.163Z,9.13
2023-06-18T21:09:23.556Z,8.32
2023-06-18T21:11:49.896Z,7.63
2023-06-18T21:14:16.259Z,8.77
2023-06-18T21:16:42.824Z,7.32
2023-06-18T21:19:09.286Z,7.95
2023-06-18T21:21:35.625Z,9.25
2023-06-18T21:24:02.325Z,8.02
2023-06-18T21:26:29.469Z,8.32
2023-06-18T21:28:55.938Z,8.40
2023-06-18T21:31:22.328Z,8.95
2023-06-18T21:33:49.198Z,8.25
2023-06-18T21:36:15.683Z,8.55
2023-06-18T21:38:42.152Z,8.52
2023-06-18T21:41:08.568Z,9.65
2023-06-18T21:43:35.027Z,9.93
2023-06-18T21:46:02.274Z,8.63
2023-06-18T21:48:29.215Z,8.65
2023-06-18T21:50:56.848Z,10.38
2023-06-18T21:53:26.225Z,8.68
2023-06-18T21:55:52.631Z,8.85
2023-06-18T21:58:21.285Z,9.10
2023-06-18T22:03:14.211Z,8.10
2023-06-18T22:05:40.924Z,8.48
2023-06-18T22:08:23.187Z,8.77
2023-06-18T22:10:50.542Z,9.35
2023-06-18T22:13:17.004Z,9.55
2023-06-18T22:15:43.467Z,9.65
2023-06-18T22:18:09.990Z,9.32
2023-06-18T22:20:36.448Z,9.50
2023-06-18T22:23:02.873Z,8.98
2023-06-18T22:25:29.296Z,7.90
2023-06-18T22:27:55.742Z,8.68
2023-06-18T22:30:22.680Z,9.57
2023-06-18T22:32:49.285Z,8.68
2023-06-18T22:35:15.918Z,9.75
2023-06-18T22:37:42.312Z,9.35
2023-06-18T22:40:09.365Z,9.02
2023-06-18T22:42:37.049Z,8.82
2023-06-18T22:45:03.675Z,8.90
2023-06-18T22:47:30.159Z,9.18
2023-06-18T22:49:56.528Z,9.52
2023-06-18T22:52:23.079Z,10.05
2023-06-18T22:54:49.488Z,8.80
2023-06-18T22:57:15.936Z,10.02
2023-06-18T22:59:42.305Z,8.77
2023-06-18T23:02:08.700Z,9.10
2023-06-18T23:04:35.085Z,8.65
2023-06-18T23:07:01.506Z,8.95
2023-06-18T23:09:28.026Z,9.15
2023-06-18T23:11:54.394Z,9.55
2023-06-18T23:14:20.782Z,9.30
2023-06-18T23:16:47.474Z,9.00
2023-06-18T23:19:13.924Z,8.73
2023-06-18T23:21:47.926Z,9.52
2023-06-18T23:24:15.279Z,9.50
2023-06-18T23:26:41.727Z,10.05
2023-06-18T23:29:11.352Z,8.80
2023-06-18T23:31:38.875Z,8.15
2023-06-18T23:34:07.221Z,8.45
2023-06-18T23:36:37.079Z,9.05
2023-06-18T23:39:04.240Z,9.13
2023-06-18T23:41:30.661Z,9.40
2023-06-18T23:43:57.104Z,9.88
2023-06-18T23:46:23.578Z,9.77
2023-06-18T23:48:50.184Z,9.82
2023-06-18T23:51:16.598Z,9.45
2023-06-18T23:53:42.998Z,9.13
2023-06-18T23:56:09.435Z,9.60
2023-06-18T23:58:35.924Z,10.05
